Startpagina
METAR-TAF:

METAR-TAF

Vliegvelden :

Valledupar, Colombia

breedte: 10-26N, lengte: 073-15W, hoogte: 138 m

Actueel weer

Dit bericht is 4 uur en het 43 minuten geleden gemaakt, om 04:00 UTC
Wind 10 kt uit het noordoosten
Temperatuur 26°C
Vochtigheid 84%
Druk 1014 hPa
Zicht 10 km of meer
Verspreide wolken op 1500 ft

METAR: SKVP 210400Z 05010KT 9999 SCT015 26/23 A2995

Tijdstip: 03:43 (08:43 UTC)


TAF: ontbreekt

Waarnemingen en weersverwachtingen van meer dan 4000 vliegvelden (METAR en TAF).

De beschikbare stations zijn de gele en rode punten op de kaart.

Ga met uw muis naar het station om de naam te zien.

Klik dan om waarnemingen en weersverwachtingen te zien.

kaart wijzigen: klik op de groene knoppen met een zwart kruis om in te zoomen, op de groene knop met een streepje om uit te zoomen of op de groene pijlen voor aangrenzende kaarten.


METAR-TAF: